KIWD/IWD METAR and TAF weather

Enter ICAO airport designator
Station Type Date Time Source
KIWD METAR 2021/05/11 22:56 UTC NOAA

KIWD 112256Z AUTO 04006KT 10SM CLR 11/M07 A3035 RMK AO2 SLP290 T01111067


Station Type Date Time Source
KIWD Decoded METAR 2021/05/11 22:56 UTC NOAA

Ironwood, Gogebic-Iron County Airport, MI, United States (KIWD) 46-32N 090-08W
May 11, 2021 - 06:56 PM EDT / 2021.05.11 2256 UTC
Wind: from the NE (040 degrees) at 7 MPH (6 KT):0
Visibility: 10 mile(s):0
Sky conditions: clear
Temperature: 52.0 F (11.1 C)
Dew Point: 19.9 F (-6.7 C)
Relative Humidity: 28%
Pressure (altimeter): 30.35 in. Hg (1027 hPa)
ob: KIWD 112256Z AUTO 04006KT 10SM CLR 11/M07 A3035 RMK AO2 SLP290 T01111067
cycle: 23

Station Type Date Time Source
KIWD TAF 2021/05/11 18:33 UTC NOAA

TAF KIWD 111730Z 1118/1218 32008KT P6SM SKC
FM120100 VRB03KT P6SM SKC
FM121700 28006KT P6SM FEW200

Example: see airport list